Monroe Regional Airport Monroe US
ICAO: KMLU
IATA: MLU
Category: Large
Scheduled Services: Yes

Elevation: 79 ft
TransAlt. 18000 ft.

Airport Communications:
APP/DEP:118.15
ATIS:125.05
CLNC DEL:121.65
CTAF:118.9
GND:121.9
DE RIDDER RDO:122.25
TWR:118.9
UNICOM:122.95

KMLU Zoom In..

If Map Doesn't Load, Click Here

Runways:

(A) RW 04 length 7505 ft width 150 ft
ILS 109.50 / hdg 42

(B) RW 14 length 4999 ft width 150 ft
---- / hdg 137

(C) RW 18 length 5001 ft width 150 ft
---- / hdg 177

(D) RW 22 length 7505 ft width 150 ft
ILS 109.50 / hdg 222

(E) RW 32 length 4999 ft width 150 ft
---- / hdg 317

(F) RW 36 length 5001 ft width 150 ft
---- / hdg 357

Location; KMLU
Day. 23 / Time. 21.53 Zulu
* Altimeter: 29.89
* Temperature: 27° c. 80.6°f.
* Wind from: 360° Speed 03 kn.
Dewpoint: 24° c.
Visibility: 9 Statute Miles.
Clouds: Few 2800 ft.
Clouds: Broken 1000 ft.
Clouds: Broken 12000 ft.

KMLU 232153Z 36003KT 9SM FEW028 BKN100 BKN120 27/24 A2989 RMK AO2 RAB11E40 SLP120 P0026 T02670244


Wind From 360°
Speed 03 kn.

 
 
jpsmedia.com for Web Design worldairports.se 2018   terms of use